createdAt,value
2023-03-29T00:01:00.472Z,3.00
2023-03-29T00:03:28.988Z,3.00
2023-03-29T00:06:03.818Z,4.00
2023-03-29T00:08:40.286Z,3.67
2023-03-29T00:11:07.890Z,1.00
2023-03-29T00:13:35.297Z,3.00
2023-03-29T00:16:02.696Z,4.00
2023-03-29T00:18:29.476Z,1.00
2023-03-29T00:20:57.632Z,1.00
2023-03-29T00:23:25.502Z,3.67
2023-03-29T00:25:56.420Z,1.00
2023-03-29T00:28:23.788Z,3.67
2023-03-29T00:30:53.472Z,3.00
2023-03-29T00:33:21.150Z,1.00
2023-03-29T00:35:48.878Z,4.00
2023-03-29T00:38:18.614Z,1.67
2023-03-29T00:40:47.092Z,3.00
2023-03-29T00:43:17.529Z,3.00
2023-03-29T00:45:44.619Z,4.00
2023-03-29T00:48:16.004Z,5.33
2023-03-29T00:50:59.969Z,3.00
2023-03-29T00:53:39.728Z,1.67
2023-03-29T00:56:14.313Z,4.00
2023-03-29T00:59:10.198Z,4.00
2023-03-29T01:01:45.779Z,3.67
2023-03-29T01:04:42.887Z,3.00
2023-03-29T01:07:18.623Z,3.00
2023-03-29T01:09:51.062Z,3.33
2023-03-29T01:12:24.255Z,1.00
2023-03-29T01:15:02.254Z,3.00
2023-03-29T01:17:31.894Z,1.00
2023-03-29T01:20:10.685Z,2.33
2023-03-29T01:23:01.010Z,4.00
2023-03-29T01:25:36.999Z,4.00
2023-03-29T01:28:12.058Z,1.67
2023-03-29T01:31:02.011Z,1.00
2023-03-29T01:33:34.500Z,3.00
2023-03-29T01:36:11.904Z,3.00
2023-03-29T01:39:07.291Z,3.00
2023-03-29T01:41:57.445Z,4.00
2023-03-29T01:44:42.760Z,3.00
2023-03-29T01:47:31.877Z,6.00
2023-03-29T01:50:16.425Z,6.00
2023-03-29T01:52:47.121Z,4.67
2023-03-29T01:55:20.310Z,4.00
2023-03-29T01:57:48.682Z,4.00
2023-03-29T02:00:24.781Z,3.67
2023-03-29T02:02:55.486Z,4.00
2023-03-29T02:05:24.714Z,6.00
2023-03-29T02:07:53.026Z,6.00
2023-03-29T02:10:22.044Z,6.33
2023-03-29T02:12:49.674Z,4.00
2023-03-29T02:15:19.281Z,3.33
2023-03-29T02:17:47.802Z,4.00
2023-03-29T02:20:24.631Z,4.00
2023-03-29T02:23:21.404Z,4.00
2023-03-29T02:25:57.157Z,3.00
2023-03-29T02:28:25.769Z,3.00
2023-03-29T02:31:21.730Z,3.00
2023-03-29T02:33:48.784Z,3.00
2023-03-29T02:36:25.088Z,3.00
2023-03-29T02:38:54.376Z,4.67
2023-03-29T02:41:23.910Z,4.00
2023-03-29T02:43:51.647Z,0.00
2023-03-29T02:46:19.777Z,3.00
2023-03-29T02:48:50.563Z,3.00
2023-03-29T02:51:25.122Z,3.00
2023-03-29T02:54:16.426Z,3.00
2023-03-29T02:56:46.113Z,3.33
2023-03-29T02:59:14.283Z,3.00
2023-03-29T03:01:44.218Z,3.00
2023-03-29T03:04:12.466Z,6.00
2023-03-29T03:06:42.113Z,1.67
2023-03-29T03:09:10.027Z,3.67
2023-03-29T03:11:36.802Z,3.00
2023-03-29T03:14:03.686Z,7.67
2023-03-29T03:16:30.449Z,3.00
2023-03-29T03:18:57.363Z,4.00
2023-03-29T03:21:24.663Z,4.67
2023-03-29T03:23:52.853Z,3.00
2023-03-29T03:26:21.653Z,3.00
2023-03-29T03:28:48.652Z,6.00
2023-03-29T03:31:15.698Z,2.33
2023-03-29T03:33:46.557Z,4.00
2023-03-29T03:36:14.215Z,4.00
2023-03-29T03:38:44.283Z,2.33
2023-03-29T03:41:11.203Z,3.00
2023-03-29T03:43:38.358Z,4.00
2023-03-29T03:46:05.627Z,6.00
2023-03-29T03:48:32.584Z,5.33
2023-03-29T03:50:59.345Z,4.00
2023-03-29T03:53:27.552Z,4.67
2023-03-29T03:55:58.293Z,3.00
2023-03-29T03:58:25.151Z,6.00
2023-03-29T04:00:52.137Z,6.00
2023-03-29T04:03:19.227Z,3.00
2023-03-29T04:05:47.262Z,6.33
2023-03-29T04:08:15.107Z,4.00
2023-03-29T04:10:42.210Z,6.00
2023-03-29T04:13:09.321Z,4.00
2023-03-29T04:15:39.018Z,6.00
2023-03-29T04:18:07.624Z,6.00
2023-03-29T04:20:35.327Z,4.00
2023-03-29T04:23:02.602Z,7.67
2023-03-29T04:25:30.028Z,6.00
2023-03-29T04:27:56.994Z,7.67
2023-03-29T04:30:24.775Z,6.00
2023-03-29T04:32:52.184Z,4.67
2023-03-29T04:35:19.280Z,6.00
2023-03-29T04:37:46.214Z,6.00
2023-03-29T04:40:14.670Z,5.33
2023-03-29T04:42:46.037Z,6.67
2023-03-29T04:45:14.152Z,3.00
2023-03-29T04:47:42.204Z,7.67
2023-03-29T04:50:09.719Z,9.50
2023-03-29T04:52:36.702Z,9.50
2023-03-29T04:55:05.313Z,9.00
2023-03-29T04:57:35.793Z,11.86
2023-03-29T05:00:08.485Z,9.00
2023-03-29T05:02:35.584Z,6.00
2023-03-29T05:05:02.599Z,11.00
2023-03-29T05:07:29.918Z,13.00
2023-03-29T05:09:57.063Z,9.00
2023-03-29T05:12:24.130Z,13.00
2023-03-29T05:14:51.183Z,9.33
2023-03-29T05:17:18.106Z,8.00
2023-03-29T05:19:44.960Z,13.00
2023-03-29T05:22:11.791Z,13.00
2023-03-29T05:24:40.469Z,15.20
2023-03-29T05:27:08.353Z,14.33
2023-03-29T05:29:35.214Z,12.50
2023-03-29T05:32:02.512Z,12.50
2023-03-29T05:34:31.533Z,16.00
2023-03-29T05:36:59.654Z,15.00
2023-03-29T05:39:26.709Z,15.00
2023-03-29T05:41:55.025Z,12.00
2023-03-29T05:44:22.038Z,12.50
2023-03-29T05:46:50.872Z,17.20
2023-03-29T05:49:18.108Z,12.50
2023-03-29T05:51:47.717Z,15.67
2023-03-29T05:54:16.015Z,13.67
2023-03-29T05:56:42.911Z,13.00
2023-03-29T05:59:09.917Z,12.50
2023-03-29T06:01:37.986Z,10.00
2023-03-29T06:04:06.627Z,10.25
2023-03-29T06:06:35.980Z,12.00
2023-03-29T06:09:03.228Z,10.00
2023-03-29T06:11:31.764Z,9.75
2023-03-29T06:13:59.318Z,11.00
2023-03-29T06:16:26.272Z,8.00
2023-03-29T06:18:53.463Z,9.00
2023-03-29T06:21:22.440Z,11.50
2023-03-29T06:23:50.470Z,10.50
2023-03-29T06:26:17.978Z,13.00
2023-03-29T06:28:45.661Z,9.25
2023-03-29T06:31:13.501Z,7.00
2023-03-29T06:33:43.240Z,12.00
2023-03-29T06:36:12.152Z,6.75
2023-03-29T06:38:39.927Z,6.00
2023-03-29T06:41:08.733Z,6.67
2023-03-29T06:43:35.605Z,3.00
2023-03-29T06:46:02.783Z,4.00
2023-03-29T06:48:30.247Z,6.33
2023-03-29T06:50:57.174Z,5.33
2023-03-29T06:53:24.045Z,5.33
2023-03-29T06:55:52.306Z,4.00
2023-03-29T06:58:19.856Z,4.67
2023-03-29T07:00:46.881Z,6.67
2023-03-29T07:03:20.265Z,4.00
2023-03-29T07:05:47.977Z,4.00
2023-03-29T07:08:16.613Z,4.00
2023-03-29T07:10:49.088Z,4.50
2023-03-29T07:13:15.913Z,3.00
2023-03-29T07:15:43.993Z,6.33
2023-03-29T07:18:12.852Z,6.67
2023-03-29T07:20:41.923Z,7.00
2023-03-29T07:23:11.489Z,5.33
2023-03-29T07:25:39.613Z,4.00
2023-03-29T07:28:07.778Z,4.00
2023-03-29T07:30:34.718Z,3.33
2023-03-29T07:33:01.617Z,5.33
2023-03-29T07:35:29.236Z,6.67
2023-03-29T07:37:56.615Z,6.33
2023-03-29T07:40:24.454Z,6.00
2023-03-29T07:42:55.557Z,8.50
2023-03-29T07:45:26.928Z,7.00
2023-03-29T07:47:59.738Z,5.33
2023-03-29T07:50:27.785Z,8.33
2023-03-29T07:52:55.246Z,5.33
2023-03-29T07:55:22.351Z,4.67
2023-03-29T07:57:49.803Z,3.00
2023-03-29T08:00:17.639Z,4.00
2023-03-29T08:02:46.049Z,6.00
2023-03-29T08:05:17.536Z,4.00
2023-03-29T08:07:47.959Z,3.33
2023-03-29T08:10:18.191Z,3.00
2023-03-29T08:12:46.689Z,4.00
2023-03-29T08:15:14.471Z,3.33
2023-03-29T08:17:41.951Z,3.00
2023-03-29T08:20:12.360Z,3.00
2023-03-29T08:22:39.538Z,3.00
2023-03-29T08:25:07.475Z,4.67
2023-03-29T08:27:34.946Z,4.00
2023-03-29T08:30:01.745Z,3.00
2023-03-29T08:32:28.759Z,1.00
2023-03-29T08:34:55.793Z,2.33
2023-03-29T08:37:24.692Z,6.00
2023-03-29T08:39:51.832Z,3.00
2023-03-29T08:42:41.145Z,2.33
2023-03-29T08:45:23.071Z,4.67
2023-03-29T08:48:17.524Z,4.00
2023-03-29T08:50:49.506Z,4.00
2023-03-29T08:53:29.686Z,3.00
2023-03-29T08:55:59.853Z,4.00
2023-03-29T08:58:32.573Z,3.00
2023-03-29T09:01:06.258Z,4.67
2023-03-29T09:04:00.227Z,3.50
2023-03-29T09:06:27.088Z,2.33
2023-03-29T09:08:53.902Z,2.67
2023-03-29T09:11:20.834Z,2.67
2023-03-29T09:14:15.027Z,2.00
2023-03-29T09:17:11.775Z,3.33
2023-03-29T09:20:21.904Z,2.00
2023-03-29T09:23:22.376Z,4.00
2023-03-29T09:26:16.205Z,2.33
2023-03-29T09:29:04.967Z,1.00
2023-03-29T09:31:42.801Z,1.00
2023-03-29T09:34:15.954Z,1.67
2023-03-29T09:37:12.062Z,1.00
2023-03-29T09:39:41.131Z,4.00
2023-03-29T09:42:10.451Z,3.33
2023-03-29T09:44:44.303Z,0.67
2023-03-29T09:47:23.790Z,1.00
2023-03-29T09:49:55.333Z,1.00
2023-03-29T09:52:22.471Z,1.00
2023-03-29T09:54:49.783Z,2.00
2023-03-29T09:57:18.044Z,0.67
2023-03-29T09:59:47.003Z,1.67
2023-03-29T10:02:14.718Z,3.33
2023-03-29T10:04:43.325Z,1.75
2023-03-29T10:07:18.209Z,4.00
2023-03-29T10:09:48.290Z,4.00
2023-03-29T10:12:16.959Z,5.00
2023-03-29T10:14:48.638Z,2.00
2023-03-29T10:17:23.101Z,28.67
2023-03-29T10:19:49.905Z,1.67
2023-03-29T10:22:22.036Z,2.67
2023-03-29T10:24:53.964Z,4.67
2023-03-29T10:27:24.456Z,4.00
2023-03-29T10:29:52.277Z,4.00
2023-03-29T10:32:34.685Z,4.00
2023-03-29T10:35:21.631Z,4.00
2023-03-29T10:37:55.368Z,2.00
2023-03-29T10:40:30.958Z,2.00
2023-03-29T10:43:27.171Z,4.00
2023-03-29T10:45:57.133Z,1.25
2023-03-29T10:48:29.966Z,5.00
2023-03-29T10:51:02.316Z,3.50
2023-03-29T10:53:35.203Z,4.00
2023-03-29T10:56:30.756Z,4.00
2023-03-29T10:59:23.473Z,5.00
2023-03-29T11:02:02.851Z,3.50
2023-03-29T11:05:00.302Z,2.00
2023-03-29T11:07:48.809Z,5.75
2023-03-29T11:10:32.670Z,2.00
2023-03-29T11:13:06.120Z,5.00
2023-03-29T11:15:43.953Z,4.00
2023-03-29T11:18:37.942Z,4.33
2023-03-29T11:21:11.753Z,5.00
2023-03-29T11:24:16.995Z,2.50
2023-03-29T11:26:59.961Z,4.25
2023-03-29T11:30:12.431Z,5.33
2023-03-29T11:33:09.481Z,5.25
2023-03-29T11:35:47.137Z,3.00
2023-03-29T11:38:20.372Z,4.00
2023-03-29T11:41:18.848Z,2.00
2023-03-29T11:43:54.147Z,5.75
2023-03-29T11:46:30.541Z,5.25
2023-03-29T11:49:21.633Z,6.00
2023-03-29T11:51:52.207Z,4.00
2023-03-29T11:54:51.893Z,5.67
2023-03-29T11:57:31.174Z,5.00
2023-03-29T12:00:14.785Z,6.00
2023-03-29T12:02:55.350Z,5.25
2023-03-29T12:05:31.684Z,5.50
2023-03-29T12:08:08.614Z,7.00
2023-03-29T12:10:42.073Z,5.50
2023-03-29T12:13:21.149Z,7.50
2023-03-29T12:15:57.437Z,6.50
2023-03-29T12:18:33.431Z,6.00
2023-03-29T12:21:04.852Z,5.00
2023-03-29T12:23:34.056Z,5.00
2023-03-29T12:26:23.181Z,5.25
2023-03-29T12:29:27.638Z,6.00
2023-03-29T12:32:12.751Z,6.50
2023-03-29T12:34:59.942Z,8.25
2023-03-29T12:37:32.365Z,4.00
2023-03-29T12:40:21.652Z,5.00
2023-03-29T12:42:54.374Z,3.75
2023-03-29T12:45:38.163Z,5.67
2023-03-29T12:48:06.715Z,6.00
2023-03-29T12:50:46.198Z,5.50
2023-03-29T12:53:13.170Z,4.67
2023-03-29T12:55:42.746Z,6.00
2023-03-29T12:58:40.257Z,5.25
2023-03-29T13:01:25.160Z,4.75
2023-03-29T13:04:10.599Z,5.75
2023-03-29T13:06:47.472Z,5.00
2023-03-29T13:09:38.068Z,4.00
2023-03-29T13:12:10.876Z,4.00
2023-03-29T13:14:46.435Z,4.50
2023-03-29T13:17:45.219Z,4.50
2023-03-29T13:20:31.916Z,5.00
2023-03-29T13:23:05.313Z,5.00
2023-03-29T13:26:09.853Z,9.00
2023-03-29T13:29:07.386Z,6.00
2023-03-29T13:32:07.838Z,5.25
2023-03-29T13:34:53.577Z,2.00
2023-03-29T13:37:29.977Z,5.75
2023-03-29T13:39:57.738Z,6.00
2023-03-29T13:42:37.758Z,5.75
2023-03-29T13:45:14.049Z,5.00
2023-03-29T13:47:54.850Z,4.00
2023-03-29T13:50:39.046Z,7.00
2023-03-29T13:53:29.372Z,6.00
2023-03-29T13:55:59.613Z,6.00
2023-03-29T13:58:35.895Z,6.00
2023-03-29T14:01:28.431Z,6.00
2023-03-29T14:03:57.007Z,9.50
2023-03-29T14:06:29.416Z,7.00
2023-03-29T14:08:57.638Z,5.00
2023-03-29T14:11:30.974Z,5.00
2023-03-29T14:14:02.953Z,9.00
2023-03-29T14:16:33.395Z,7.00
2023-03-29T14:19:13.616Z,7.80
2023-03-29T14:21:43.741Z,6.50
2023-03-29T14:24:16.813Z,6.00
2023-03-29T14:26:47.268Z,8.00
2023-03-29T14:29:14.838Z,6.00
2023-03-29T14:31:42.898Z,4.50
2023-03-29T14:34:16.946Z,2.25
2023-03-29T14:36:48.925Z,6.00
2023-03-29T14:39:23.437Z,10.50
2023-03-29T14:41:53.570Z,6.25
2023-03-29T14:44:22.909Z,6.00
2023-03-29T14:46:49.740Z,6.00
2023-03-29T14:49:19.793Z,11.00
2023-03-29T14:51:49.298Z,7.50
2023-03-29T14:54:29.810Z,7.00
2023-03-29T14:56:58.184Z,6.00
2023-03-29T14:59:36.735Z,6.25
2023-03-29T15:02:04.345Z,6.00
2023-03-29T15:04:37.550Z,6.00
2023-03-29T15:07:05.445Z,7.67
2023-03-29T15:09:34.885Z,13.00
2023-03-29T15:12:04.481Z,15.83
2023-03-29T15:14:38.253Z,6.00
2023-03-29T15:17:22.399Z,4.00
2023-03-29T15:20:25.401Z,8.43
2023-03-29T15:22:58.918Z,6.50
2023-03-29T15:25:33.011Z,2.00
2023-03-29T15:28:02.066Z,9.50
2023-03-29T15:30:36.250Z,7.25
2023-03-29T15:33:20.147Z,7.00
2023-03-29T15:35:51.374Z,8.50
2023-03-29T15:38:25.431Z,8.25
2023-03-29T15:41:04.343Z,12.83
2023-03-29T15:43:33.042Z,9.00
2023-03-29T15:46:00.330Z,12.00
2023-03-29T15:48:30.044Z,12.33
2023-03-29T15:51:00.808Z,11.33
2023-03-29T15:53:29.993Z,14.67
2023-03-29T15:56:02.840Z,19.00
2023-03-29T15:58:32.873Z,19.50
2023-03-29T16:01:34.354Z,20.00
2023-03-29T16:04:05.503Z,21.50
2023-03-29T16:06:34.029Z,13.00
2023-03-29T16:09:05.274Z,15.67
2023-03-29T16:11:32.223Z,11.50
2023-03-29T16:14:00.211Z,17.00
2023-03-29T16:16:27.438Z,23.00
2023-03-29T16:18:57.986Z,12.00
2023-03-29T16:21:27.291Z,20.33
2023-03-29T16:23:54.285Z,17.50
2023-03-29T16:26:22.506Z,18.00
2023-03-29T16:28:50.168Z,14.00
2023-03-29T16:31:18.805Z,21.00
2023-03-29T16:33:46.754Z,29.00
2023-03-29T16:36:15.301Z,31.33
2023-03-29T16:38:42.469Z,21.50
2023-03-29T16:41:15.009Z,20.50
2023-03-29T16:43:43.280Z,23.33
2023-03-29T16:46:11.381Z,22.00
2023-03-29T16:48:39.595Z,21.50
2023-03-29T16:51:07.199Z,21.00
2023-03-29T16:53:35.926Z,10.00
2023-03-29T16:56:04.892Z,13.00
2023-03-29T16:58:32.426Z,12.50
2023-03-29T17:01:10.970Z,16.33
2023-03-29T17:03:39.883Z,14.67
2023-03-29T17:06:08.169Z,13.50
2023-03-29T17:08:35.429Z,16.00
2023-03-29T17:11:03.545Z,14.00
2023-03-29T17:13:34.530Z,22.00
2023-03-29T17:16:02.645Z,25.50
2023-03-29T17:18:31.007Z,19.00
2023-03-29T17:21:00.214Z,24.00
2023-03-29T17:23:29.440Z,29.00
2023-03-29T17:25:58.431Z,34.33
2023-03-29T17:28:27.126Z,26.33
2023-03-29T17:30:56.017Z,30.33
2023-03-29T17:33:26.443Z,16.00
2023-03-29T17:35:53.645Z,14.00
2023-03-29T17:38:21.662Z,13.67
2023-03-29T17:40:53.771Z,16.00
2023-03-29T17:43:21.191Z,16.50
2023-03-29T17:45:53.478Z,17.33
2023-03-29T17:48:21.734Z,20.00
2023-03-29T17:50:49.653Z,24.50
2023-03-29T17:53:17.671Z,21.33
2023-03-29T17:55:46.389Z,30.00
2023-03-29T17:58:15.027Z,34.33
2023-03-29T18:00:43.950Z,33.67
2023-03-29T18:03:13.290Z,40.50
2023-03-29T18:05:42.108Z,46.00
2023-03-29T18:08:10.906Z,56.33
2023-03-29T18:10:40.105Z,55.00
2023-03-29T18:13:13.768Z,54.00
2023-03-29T18:15:45.121Z,46.67
2023-03-29T18:18:13.863Z,47.00
2023-03-29T18:20:45.296Z,35.50
2023-03-29T18:23:13.007Z,36.50
2023-03-29T18:25:42.166Z,40.67
2023-03-29T18:28:11.510Z,43.67
2023-03-29T18:30:40.095Z,43.00
2023-03-29T18:33:08.805Z,42.00
2023-03-29T18:35:37.501Z,43.00
2023-03-29T18:38:06.671Z,43.33
2023-03-29T18:40:35.268Z,38.33
2023-03-29T18:43:03.795Z,39.33
2023-03-29T18:45:32.401Z,40.00
2023-03-29T18:48:02.131Z,41.00
2023-03-29T18:50:29.969Z,36.50
2023-03-29T18:52:58.007Z,40.50
2023-03-29T18:55:25.831Z,38.00
2023-03-29T18:57:53.818Z,38.50
2023-03-29T19:00:22.955Z,35.00
2023-03-29T19:02:51.628Z,37.00
2023-03-29T19:05:20.305Z,36.00
2023-03-29T19:07:48.245Z,35.50
2023-03-29T19:10:16.697Z,31.00
2023-03-29T19:12:44.745Z,38.50
2023-03-29T19:15:13.032Z,39.00
2023-03-29T19:17:41.578Z,38.00
2023-03-29T19:20:10.253Z,37.00
2023-03-29T19:22:38.630Z,41.00
2023-03-29T19:25:07.733Z,38.00
2023-03-29T19:27:36.579Z,45.00
2023-03-29T19:30:10.940Z,46.33
2023-03-29T19:32:39.547Z,44.67
2023-03-29T19:35:09.845Z,43.00
2023-03-29T19:37:43.023Z,44.33
2023-03-29T19:40:12.304Z,42.00
2023-03-29T19:42:41.636Z,39.33
2023-03-29T19:45:10.836Z,40.00
2023-03-29T19:47:38.782Z,37.00
2023-03-29T19:50:07.306Z,36.50
2023-03-29T19:52:36.048Z,32.00
2023-03-29T19:55:06.590Z,31.33
2023-03-29T19:57:34.437Z,26.50
2023-03-29T20:00:04.183Z,25.33
2023-03-29T20:02:31.555Z,22.00
2023-03-29T20:04:59.418Z,29.50
2023-03-29T20:07:27.187Z,29.00
2023-03-29T20:09:54.945Z,20.67
2023-03-29T20:12:23.853Z,25.33
2023-03-29T20:14:51.944Z,25.00
2023-03-29T20:17:19.831Z,25.00
2023-03-29T20:19:48.672Z,30.33
2023-03-29T20:22:16.486Z,28.00
2023-03-29T20:24:45.547Z,29.00
2023-03-29T20:27:15.929Z,28.00
2023-03-29T20:29:43.669Z,35.50
2023-03-29T20:32:11.661Z,32.00
2023-03-29T20:34:39.576Z,33.00
2023-03-29T20:37:07.636Z,34.00
2023-03-29T20:39:35.836Z,31.50
2023-03-29T20:42:04.539Z,32.00
2023-03-29T20:44:35.240Z,30.67
2023-03-29T20:47:08.399Z,27.00
2023-03-29T20:49:38.381Z,24.00
2023-03-29T20:52:24.470Z,21.50
2023-03-29T20:54:51.539Z,24.50
2023-03-29T20:57:21.001Z,21.00
2023-03-29T20:59:49.500Z,20.00
2023-03-29T21:02:20.956Z,19.50
2023-03-29T21:04:52.529Z,20.00
2023-03-29T21:07:21.999Z,18.33
2023-03-29T21:09:50.654Z,19.67
2023-03-29T21:12:20.358Z,15.83
2023-03-29T21:14:47.679Z,22.00
2023-03-29T21:17:15.437Z,19.00
2023-03-29T21:19:43.195Z,18.00
2023-03-29T21:22:13.821Z,14.00
2023-03-29T21:24:40.786Z,7.00
2023-03-29T21:27:08.506Z,14.00
2023-03-29T21:29:36.920Z,14.00
2023-03-29T21:32:04.903Z,14.00
2023-03-29T21:34:31.757Z,11.00
2023-03-29T21:37:01.608Z,11.67
2023-03-29T21:39:28.695Z,10.00
2023-03-29T21:41:56.187Z,13.00
2023-03-29T21:44:26.328Z,13.00
2023-03-29T21:46:56.189Z,10.50
2023-03-29T21:49:23.168Z,11.00
2023-03-29T21:51:51.564Z,12.33
2023-03-29T21:54:18.759Z,10.00
2023-03-29T21:56:47.813Z,10.00
2023-03-29T21:59:14.753Z,10.00
2023-03-29T22:01:42.530Z,13.33
2023-03-29T22:04:11.707Z,11.80
2023-03-29T22:06:41.942Z,14.20
2023-03-29T22:09:11.248Z,14.00
2023-03-29T22:11:38.952Z,14.33
2023-03-29T22:14:08.048Z,15.00
2023-03-29T22:16:37.586Z,10.00
2023-03-29T22:19:06.546Z,15.00
2023-03-29T22:21:37.336Z,12.67
2023-03-29T22:24:08.617Z,12.00
2023-03-29T22:26:38.141Z,13.67
2023-03-29T22:29:06.116Z,14.33
2023-03-29T22:31:33.266Z,13.00
2023-03-29T22:34:02.892Z,14.00
2023-03-29T22:36:31.242Z,13.50
2023-03-29T22:39:01.058Z,13.00
2023-03-29T22:41:28.973Z,16.00
2023-03-29T22:43:58.893Z,16.00
2023-03-29T22:46:28.095Z,10.00
2023-03-29T22:48:57.059Z,15.60
2023-03-29T22:51:26.311Z,16.20
2023-03-29T22:53:54.132Z,11.00
2023-03-29T22:56:22.122Z,17.00
2023-03-29T22:58:49.254Z,14.00
2023-03-29T23:01:17.083Z,10.00
2023-03-29T23:03:44.216Z,16.00
2023-03-29T23:06:13.930Z,16.50
2023-03-29T23:08:42.751Z,14.00
2023-03-29T23:11:11.639Z,16.33
2023-03-29T23:13:39.908Z,16.00
2023-03-29T23:16:08.119Z,17.33
2023-03-29T23:18:38.756Z,13.00
2023-03-29T23:21:07.637Z,12.00
2023-03-29T23:23:37.593Z,13.83
2023-03-29T23:26:05.931Z,17.33
2023-03-29T23:28:34.879Z,12.33
2023-03-29T23:31:06.790Z,14.33
2023-03-29T23:33:36.079Z,13.00
2023-03-29T23:36:06.389Z,12.67
2023-03-29T23:38:37.310Z,12.00
2023-03-29T23:41:08.598Z,17.33
2023-03-29T23:43:40.703Z,15.00
2023-03-29T23:46:11.194Z,13.00
2023-03-29T23:48:39.286Z,13.67
2023-03-29T23:51:08.319Z,10.67
2023-03-29T23:53:38.323Z,12.67
2023-03-29T23:56:05.977Z,13.00
2023-03-29T23:58:36.930Z,15.00
